Time;durP1;ratioP1;P1;durP2;ratioP2;P2;SDS_P1;SDS_P2;PMS_P1;PMS_P2;Temp;Humidity;BMP_temperature;BMP_pressure;BME280_temperature;BME280_humidity;BME280_pressure;Samples;Min_cycle;Max_cycle;Signal;HPM_P1;HPM_P2
2023/10/16 00:00:46;;;;;;;5.85;0.90;;;7.20;99.90;;;;;;4970256;28;20047;-69
2023/10/16 00:03:12;;;;;;;9.75;0.68;;;7.20;99.90;;;;;;4969216;28;20407;-68
2023/10/16 00:05:49;;;;;;;4.25;0.88;;;7.20;99.90;;;;;;4947248;28;20058;-68
2023/10/16 00:08:18;;;;;;;4.22;0.50;;;7.20;99.90;;;;;;4966918;28;20066;-68
2023/10/16 00:11:16;;;;;;;6.18;0.90;;;7.20;99.90;;;;;;4969661;28;20057;-68
2023/10/16 00:13:47;;;;;;;2.90;0.70;;;7.20;99.90;;;;;;4883574;29;20131;-68
2023/10/16 00:16:21;;;;;;;3.03;0.70;;;7.20;99.90;;;;;;4873519;29;20053;-69
2023/10/16 00:18:48;;;;;;;2.67;0.68;;;7.20;99.90;;;;;;4877842;29;20087;-67
2023/10/16 00:21:14;;;;;;;3.10;0.50;;;7.40;99.90;;;;;;4889888;29;20588;-69
2023/10/16 00:23:41;;;;;;;1.65;0.50;;;6.80;99.90;;;;;;4891014;29;20056;-69
2023/10/16 00:26:10;;;;;;;2.70;0.52;;;7.20;99.90;;;;;;4852560;29;20052;-68
2023/10/16 00:28:36;;;;;;;2.13;0.32;;;7.20;99.90;;;;;;4877198;29;20138;-71
2023/10/16 00:31:03;;;;;;;1.38;0.50;;;7.30;99.90;;;;;;4891305;29;20051;-68
2023/10/16 00:33:29;;;;;;;3.17;0.75;;;7.20;99.90;;;;;;4882917;29;20516;-68
2023/10/16 00:35:54;;;;;;;3.70;0.57;;;7.20;99.90;;;;;;4890918;29;20143;-68
2023/10/16 00:38:22;;;;;;;2.70;0.40;;;7.10;99.90;;;;;;4883154;29;20144;-69
2023/10/16 00:43:34;;;;;;;3.55;0.43;;;7.10;99.90;;;;;;4890421;29;20053;-68
2023/10/16 00:46:06;;;;;;;2.88;0.50;;;7.10;99.90;;;;;;4891002;29;20386;-68
2023/10/16 00:48:39;;;;;;;5.85;0.63;;;7.10;99.90;;;;;;4882450;29;20052;-68
2023/10/16 00:51:16;;;;;;;5.05;0.47;;;7.10;99.90;;;;;;4962875;28;20125;-70
2023/10/16 00:53:44;;;;;;;6.05;0.60;;;7.20;99.90;;;;;;4964906;28;20477;-68
2023/10/16 00:56:13;;;;;;;6.30;0.60;;;7.20;99.90;;;;;;4946761;28;20174;-69
2023/10/16 00:58:40;;;;;;;2.97;0.60;;;7.20;99.90;;;;;;4968958;28;20450;-69
2023/10/16 01:01:09;;;;;;;5.43;0.82;;;7.20;99.90;;;;;;4967450;28;20133;-70
2023/10/16 01:03:40;;;;;;;3.17;0.55;;;7.30;99.90;;;;;;4969069;28;20069;-70
2023/10/16 01:06:17;;;;;;;3.67;0.50;;;7.30;99.90;;;;;;4959691;28;20402;-69
2023/10/16 01:08:49;;;;;;;3.75;0.60;;;7.30;99.90;;;;;;4965624;28;20069;-68
2023/10/16 01:11:18;;;;;;;4.13;0.60;;;7.30;99.90;;;;;;4958885;28;20051;-69
2023/10/16 01:13:47;;;;;;;4.13;0.57;;;7.30;99.90;;;;;;4968593;28;20045;-70
2023/10/16 01:16:19;;;;;;;2.75;0.50;;;7.30;99.90;;;;;;4950620;28;20077;-68
2023/10/16 01:18:45;;;;;;;4.32;0.63;;;7.30;99.90;;;;;;4972697;28;20077;-69
2023/10/16 01:21:14;;;;;;;3.38;0.60;;;7.30;99.90;;;;;;4972646;28;20494;-72
2023/10/16 01:23:44;;;;;;;3.90;0.63;;;7.30;99.90;;;;;;4968487;28;20061;-69
2023/10/16 01:26:10;;;;;;;6.05;0.60;;;7.40;99.90;;;;;;4972915;28;20198;-69
2023/10/16 01:28:36;;;;;;;3.38;0.50;;;7.30;99.90;;;;;;4971113;28;20081;-70
2023/10/16 01:31:04;;;;;;;5.00;0.75;;;7.50;99.90;;;;;;4969686;28;20513;-69
2023/10/16 01:33:30;;;;;;;4.32;0.60;;;7.30;99.90;;;;;;4972608;28;20085;-69
2023/10/16 01:35:56;;;;;;;4.78;0.77;;;7.50;99.90;;;;;;4969057;28;20102;-71
2023/10/16 01:38:24;;;;;;;2.13;0.43;;;7.30;99.90;;;;;;4953602;28;20094;-69
2023/10/16 01:43:30;;;;;;;5.05;0.50;;;7.30;99.90;;;;;;4966225;28;20047;-70
2023/10/16 01:46:00;;;;;;;3.22;0.50;;;7.40;99.90;;;;;;4972675;28;20108;-73
2023/10/16 01:48:29;;;;;;;1.73;0.38;;;7.40;99.90;;;;;;4972299;28;20071;-71
2023/10/16 01:50:56;;;;;;;3.72;0.40;;;7.40;99.90;;;;;;4946928;28;20582;-71
2023/10/16 01:53:25;;;;;;;4.57;0.80;;;7.40;99.90;;;;;;4954986;28;20085;-71
2023/10/16 01:55:54;;;;;;;4.18;0.60;;;7.40;99.90;;;;;;4971992;28;20109;-72
2023/10/16 01:58:30;;;;;;;3.83;0.50;;;7.40;99.90;;;;;;4964941;28;20514;-69
2023/10/16 02:00:56;;;;;;;6.65;1.02;;;7.40;99.90;;;;;;4964775;28;20089;-70
2023/10/16 02:03:25;;;;;;;5.57;0.70;;;7.40;99.90;;;;;;4964707;28;20082;-71
2023/10/16 02:05:51;;;;;;;2.22;0.63;;;7.40;99.90;;;;;;4963615;28;20055;-69
2023/10/16 02:08:20;;;;;;;2.28;0.70;;;7.40;99.90;;;;;;4971853;28;20066;-70
2023/10/16 02:10:46;;;;;;;5.50;0.60;;;7.40;99.90;;;;;;4971002;28;20082;-68
2023/10/16 02:13:12;;;;;;;4.93;0.80;;;7.50;99.90;;;;;;4964949;28;20042;-71
2023/10/16 02:15:39;;;;;;;3.30;0.52;;;7.40;99.90;;;;;;4971781;28;20050;-75
2023/10/16 02:18:06;;;;;;;3.17;0.80;;;7.50;99.90;;;;;;4953065;28;20174;-70
2023/10/16 02:20:38;;;;;;;6.22;0.80;;;7.50;99.90;;;;;;4972402;28;20661;-70
2023/10/16 02:23:06;;;;;;;4.15;0.77;;;7.50;99.90;;;;;;4970967;28;20078;-71
2023/10/16 02:25:33;;;;;;;9.50;0.98;;;7.60;99.90;;;;;;4952832;28;20745;-69
2023/10/16 02:27:59;;;;;;;4.43;1.02;;;7.60;99.90;;;;;;4970125;28;20047;-70
2023/10/16 02:32:53;;;;;;;5.28;1.20;;;7.60;99.90;;;;;;4947393;29;20134;-69
2023/10/16 02:35:22;;;;;;;6.47;1.70;;;7.50;99.90;;;;;;4970211;28;20047;-70
2023/10/16 02:37:53;;;;;;;6.00;1.20;;;7.80;99.90;;;;;;4970787;28;20043;-71
2023/10/16 02:40:20;;;;;;;9.82;0.82;;;7.60;99.90;;;;;;4968344;28;20093;-70
2023/10/16 02:42:51;;;;;;;4.30;0.80;;;7.60;99.90;;;;;;4965571;28;20043;-73
2023/10/16 02:45:25;;;;;;;4.07;1.00;;;7.60;99.90;;;;;;4947656;28;20062;-70
2023/10/16 02:47:52;;;;;;;6.60;1.00;;;7.50;99.90;;;;;;4961915;28;20049;-69
2023/10/16 02:50:19;;;;;;;5.60;0.90;;;7.60;99.90;;;;;;4971333;28;20054;-70
2023/10/16 02:52:46;;;;;;;8.57;1.02;;;7.70;99.90;;;;;;4953704;28;20142;-72
2023/10/16 02:55:13;;;;;;;5.55;1.00;;;7.60;99.90;;;;;;4965837;28;20046;-70
2023/10/16 02:57:40;;;;;;;6.35;1.02;;;7.60;99.90;;;;;;4966330;28;20053;-70
2023/10/16 03:00:15;;;;;;;3.05;0.95;;;7.60;99.90;;;;;;4968661;28;20089;-74
2023/10/16 03:02:40;;;;;;;10.52;1.00;;;7.60;99.90;;;;;;4959291;28;20122;-69
2023/10/16 03:05:21;;;;;;;5.72;1.48;;;7.60;99.90;;;;;;4957266;28;20487;-72
2023/10/16 03:07:49;;;;;;;10.20;1.30;;;7.60;99.90;;;;;;4962975;28;20059;-68
2023/10/16 03:10:16;;;;;;;4.65;1.25;;;7.60;99.90;;;;;;4959582;28;20150;-71
2023/10/16 03:12:43;;;;;;;3.53;0.90;;;7.60;99.90;;;;;;4962732;28;20471;-70
2023/10/16 03:15:15;;;;;;;2.63;0.90;;;7.70;99.90;;;;;;4943988;28;20475;-70
2023/10/16 03:17:41;;;;;;;8.05;1.40;;;7.70;99.90;;;;;;4958747;28;20467;-74
2023/10/16 03:20:24;;;;;;;9.93;1.10;;;7.60;99.90;;;;;;4969393;28;20049;-71
2023/10/16 03:22:50;;;;;;;6.18;0.90;;;7.60;99.90;;;;;;4940022;29;20043;-70
2023/10/16 03:25:25;;;;;;;10.52;1.33;;;7.70;99.90;;;;;;4945006;28;20105;-70
2023/10/16 03:27:54;;;;;;;2.35;0.70;;;7.70;99.90;;;;;;4970813;28;20047;-68
2023/10/16 03:30:20;;;;;;;5.70;1.20;;;7.70;99.90;;;;;;4970244;28;20051;-69
2023/10/16 03:32:47;;;;;;;7.40;0.90;;;8.00;99.90;;;;;;4955837;28;20570;-70
2023/10/16 03:35:20;;;;;;;6.10;1.13;;;7.70;99.90;;;;;;4961304;28;20074;-68
2023/10/16 03:37:49;;;;;;;4.32;1.10;;;7.70;99.90;;;;;;4967034;28;20414;-70
2023/10/16 03:40:16;;;;;;;4.72;1.20;;;7.80;99.90;;;;;;4968462;28;20572;-69
2023/10/16 03:42:43;;;;;;;5.03;0.98;;;7.80;99.90;;;;;;4968579;28;20053;-69
2023/10/16 03:45:09;;;;;;;6.20;1.33;;;7.80;99.90;;;;;;4949983;28;20077;-67
2023/10/16 03:47:35;;;;;;;4.15;0.98;;;7.80;99.90;;;;;;4945112;28;20482;-68
2023/10/16 03:50:03;;;;;;;5.43;1.00;;;7.80;99.90;;;;;;4960572;28;20050;-69
2023/10/16 03:52:28;;;;;;;6.97;1.38;;;7.90;99.90;;;;;;4960957;28;20130;-68
2023/10/16 03:54:54;;;;;;;5.68;0.80;;;7.80;99.90;;;;;;4946033;28;20150;-72
2023/10/16 03:57:20;;;;;;;9.73;1.00;;;7.80;99.90;;;;;;4958508;28;20106;-69
2023/10/16 03:59:47;;;;;;;6.72;1.00;;;7.80;99.90;;;;;;4962879;28;20102;-69
2023/10/16 04:02:23;;;;;;;5.50;1.40;;;7.80;99.90;;;;;;4966380;28;20042;-68
2023/10/16 04:04:53;;;;;;;4.35;1.10;;;7.80;99.90;;;;;;4963510;28;20043;-68
2023/10/16 04:07:22;;;;;;;5.68;1.17;;;7.90;99.90;;;;;;4964220;28;20062;-68
2023/10/16 04:09:52;;;;;;;6.15;1.23;;;7.80;99.90;;;;;;4957212;28;20047;-68
2023/10/16 04:12:21;;;;;;;11.23;1.10;;;7.80;99.90;;;;;;4951998;28;20062;-69
2023/10/16 04:14:55;;;;;;;8.38;1.38;;;8.00;99.90;;;;;;4970261;28;20043;-69
2023/10/16 04:17:25;;;;;;;3.72;1.25;;;7.80;99.90;;;;;;4944369;28;20069;-69
2023/10/16 04:19:59;;;;;;;4.55;1.05;;;7.90;99.90;;;;;;4964066;28;20118;-69
2023/10/16 04:22:27;;;;;;;4.05;0.93;;;7.70;99.90;;;;;;4961189;28;20051;-69
2023/10/16 04:24:55;;;;;;;6.47;1.20;;;7.70;99.90;;;;;;4963339;28;20047;-71
2023/10/16 04:29:49;;;;;;;4.78;1.15;;;7.70;99.90;;;;;;4964642;28;20058;-69
2023/10/16 04:35:28;;;;;;;6.47;1.00;;;7.60;99.90;;;;;;4964530;28;20062;-69
2023/10/16 04:38:27;;;;;;;3.72;1.10;;;7.60;99.90;;;;;;4958639;28;20650;-70
2023/10/16 04:43:51;;;;;;;7.45;0.93;;;7.60;99.90;;;;;;4946363;28;20141;-72
2023/10/16 04:46:20;;;;;;;4.57;1.02;;;7.60;99.90;;;;;;4941993;28;20054;-69
2023/10/16 04:48:51;;;;;;;3.58;0.93;;;7.50;99.90;;;;;;4958911;28;20051;-70
2023/10/16 04:51:22;;;;;;;7.05;0.88;;;7.50;99.90;;;;;;4944684;28;20054;-70
2023/10/16 04:53:58;;;;;;;8.80;1.10;;;7.40;99.90;;;;;;4963033;28;20126;-70
2023/10/16 04:59:37;;;;;;;8.18;1.13;;;7.40;99.90;;;;;;4965034;28;20149;-70
2023/10/16 05:02:16;;;;;;;6.22;1.13;;;7.40;99.90;;;;;;4967567;28;20124;-68
2023/10/16 05:07:38;;;;;;;3.58;1.00;;;7.30;99.90;;;;;;4911938;29;20052;-70
2023/10/16 05:10:51;;;;;;;2.67;0.90;;;7.30;99.90;;;;;;4891715;29;20060;-70
2023/10/16 05:13:24;;;;;;;8.43;1.00;;;7.20;99.90;;;;;;4913496;29;20113;-74
2023/10/16 05:18:46;;;;;;;2.40;1.20;;;7.10;99.90;;;;;;4907980;29;20048;-71
2023/10/16 06:16:00;;;;;;;3.90;1.37;;;7.30;99.90;;;;;;4961503;28;20053;-70
2023/10/16 06:18:28;;;;;;;6.38;1.10;;;6.80;99.90;;;;;;4954372;28;20661;-69
2023/10/16 06:20:54;;;;;;;4.03;1.02;;;6.90;99.90;;;;;;4954610;28;20047;-69
2023/10/16 06:23:19;;;;;;;3.65;1.05;;;7.00;99.90;;;;;;4968776;28;20051;-73
2023/10/16 06:25:47;;;;;;;3.00;1.10;;;6.90;99.90;;;;;;4969227;28;20035;-71
2023/10/16 06:28:15;;;;;;;4.40;1.00;;;7.00;99.90;;;;;;4971479;28;20051;-69
2023/10/16 06:30:41;;;;;;;4.63;1.10;;;7.00;99.90;;;;;;4968382;28;20475;-68
2023/10/16 06:33:07;;;;;;;4.65;1.10;;;7.00;99.90;;;;;;4968963;28;20097;-70
2023/10/16 06:35:34;;;;;;;7.65;1.48;;;7.10;99.90;;;;;;4970580;28;20079;-69
2023/10/16 06:38:00;;;;;;;7.15;1.27;;;7.20;99.90;;;;;;4969755;28;20538;-68
2023/10/16 06:40:27;;;;;;;6.07;1.17;;;7.20;99.90;;;;;;4971866;28;20133;-69
2023/10/16 06:43:15;;;;;;;5.28;1.40;;;7.20;99.90;;;;;;4960378;28;20507;-69
2023/10/16 06:45:42;;;;;;;5.57;1.20;;;7.30;99.90;;;;;;4948857;28;20130;-69
2023/10/16 06:48:15;;;;;;;4.57;1.58;;;7.30;99.90;;;;;;4969734;28;20042;-68
2023/10/16 06:51:25;;;;;;;6.15;1.20;;;7.50;99.90;;;;;;4967842;28;20086;-68
2023/10/16 06:53:45;;;;;;;6.78;1.65;;;7.40;99.90;;;;;;4962686;28;20051;-69
2023/10/16 06:56:27;;;;;;;9.77;1.60;;;7.50;99.90;;;;;;4970892;28;20457;-69
2023/10/16 06:58:55;;;;;;;6.63;1.70;;;7.90;99.90;;;;;;4962647;28;20045;-68
2023/10/16 07:01:21;;;;;;;6.07;1.10;;;7.70;99.90;;;;;;4964602;28;20055;-68
2023/10/16 07:03:47;;;;;;;4.82;1.20;;;7.70;99.90;;;;;;4964710;28;20493;-68
2023/10/16 07:06:14;;;;;;;7.30;1.20;;;7.70;99.90;;;;;;4969739;28;20410;-68
2023/10/16 07:08:41;;;;;;;3.47;1.25;;;7.70;99.90;;;;;;4970800;28;20078;-69
2023/10/16 07:11:11;;;;;;;7.65;1.23;;;7.80;99.90;;;;;;4969744;28;20062;-69
2023/10/16 07:13:38;;;;;;;17.30;1.42;;;7.80;99.90;;;;;;4956686;28;20047;-69
2023/10/16 07:16:05;;;;;;;7.57;1.60;;;7.90;99.90;;;;;;4960605;28;20109;-69
2023/10/16 07:18:33;;;;;;;7.90;1.65;;;7.90;99.90;;;;;;4967662;28;20839;-69
2023/10/16 07:20:59;;;;;;;4.65;1.20;;;8.20;99.90;;;;;;4967539;28;20505;-68
2023/10/16 07:23:29;;;;;;;5.75;1.30;;;8.00;99.90;;;;;;4966267;28;20046;-70
2023/10/16 07:25:59;;;;;;;5.05;1.08;;;8.10;99.90;;;;;;4945954;28;20055;-68
2023/10/16 07:28:26;;;;;;;6.88;1.45;;;8.10;99.90;;;;;;4967110;28;20042;-68
2023/10/16 07:30:56;;;;;;;3.92;1.00;;;8.10;99.90;;;;;;4962206;28;20051;-68
2023/10/16 07:33:22;;;;;;;6.40;1.27;;;8.20;99.90;;;;;;4946792;28;20406;-68
2023/10/16 07:35:49;;;;;;;6.75;1.40;;;8.20;99.90;;;;;;4964964;28;20109;-70
2023/10/16 07:38:19;;;;;;;4.68;1.30;;;8.30;99.90;;;;;;4960442;28;20046;-69
2023/10/16 07:40:51;;;;;;;4.53;1.23;;;8.30;99.90;;;;;;4947903;28;20059;-67
2023/10/16 07:43:26;;;;;;;5.30;1.23;;;8.40;99.90;;;;;;4960880;28;20058;-69
2023/10/16 07:48:52;;;;;;;6.00;1.35;;;8.50;99.90;;;;;;4943561;29;20059;-68
2023/10/16 07:51:21;;;;;;;5.45;1.42;;;8.60;99.90;;;;;;4968258;28;20078;-69
2023/10/16 07:53:48;;;;;;;7.28;1.42;;;9.00;99.90;;;;;;4943035;28;20138;-67
2023/10/16 07:58:54;;;;;;;5.03;1.40;;;8.90;99.90;;;;;;4954933;28;20070;-71
2023/10/16 08:01:36;;;;;;;7.07;1.50;;;8.90;99.90;;;;;;4942376;28;20063;-67
2023/10/16 08:07:04;;;;;;;4.75;1.17;;;9.10;99.90;;;;;;4943693;29;20055;-67
2023/10/16 08:12:20;;;;;;;8.23;1.70;;;9.20;99.90;;;;;;4949999;28;20059;-68
2023/10/16 08:14:46;;;;;;;6.53;1.42;;;9.20;99.90;;;;;;4939996;28;20455;-67
2023/10/16 08:17:16;;;;;;;13.88;2.05;;;9.30;99.90;;;;;;4952702;28;20051;-67
2023/10/16 08:19:46;;;;;;;9.32;1.67;;;9.30;99.90;;;;;;4945825;28;20132;-68
2023/10/16 08:22:14;;;;;;;6.07;1.42;;;9.40;99.90;;;;;;4951159;28;20086;-66
2023/10/16 08:24:43;;;;;;;5.22;1.23;;;9.40;99.90;;;;;;4953603;28;20487;-67
2023/10/16 08:27:23;;;;;;;13.35;1.65;;;9.40;99.90;;;;;;4956424;28;20427;-66
2023/10/16 08:29:54;;;;;;;5.05;1.30;;;9.50;99.90;;;;;;4954660;28;20577;-66
2023/10/16 08:35:09;;;;;;;13.10;1.77;;;9.60;99.90;;;;;;4953140;28;20134;-66
2023/10/16 08:37:35;;;;;;;5.38;1.30;;;9.60;99.90;;;;;;4922169;29;20055;-66
2023/10/16 08:40:00;;;;;;;5.97;1.42;;;9.70;99.90;;;;;;4951218;28;20399;-67
2023/10/16 08:42:26;;;;;;;8.95;1.52;;;9.80;99.90;;;;;;4964456;28;20039;-69
2023/10/16 08:44:58;;;;;;;6.15;1.35;;;9.80;99.90;;;;;;4963934;28;20046;-68
2023/10/16 08:47:25;;;;;;;10.32;2.05;;;10.00;99.90;;;;;;4951149;28;20051;-68
2023/10/16 08:49:55;;;;;;;6.55;1.50;;;10.40;99.90;;;;;;4957086;28;20046;-69
2023/10/16 08:52:23;;;;;;;6.40;1.35;;;10.40;99.90;;;;;;4934986;28;20047;-69
2023/10/16 08:57:19;;;;;;;5.80;1.08;;;10.70;99.90;;;;;;4944070;28;20055;-68
2023/10/16 08:59:50;;;;;;;8.75;1.63;;;10.90;99.90;;;;;;4966506;28;20046;-68
2023/10/16 09:02:19;;;;;;;9.20;1.30;;;11.00;99.90;;;;;;4962214;28;20054;-69
2023/10/16 09:04:48;;;;;;;9.82;1.60;;;11.20;99.90;;;;;;4935338;29;20494;-69
2023/10/16 09:07:16;;;;;;;7.90;1.42;;;11.50;99.90;;;;;;4962425;28;20059;-69
2023/10/16 09:09:44;;;;;;;7.63;1.02;;;11.40;99.90;;;;;;4945418;28;20059;-69
2023/10/16 09:12:12;;;;;;;7.70;1.50;;;11.60;99.90;;;;;;4947962;28;20085;-70
2023/10/16 09:14:38;;;;;;;7.65;1.35;;;11.80;99.90;;;;;;4943499;28;20140;-69
2023/10/16 09:17:06;;;;;;;6.47;1.48;;;12.10;99.90;;;;;;4959151;28;20134;-69
2023/10/16 09:19:34;;;;;;;10.23;1.63;;;12.10;99.90;;;;;;4959191;28;20545;-69
2023/10/16 09:22:09;;;;;;;11.50;1.50;;;12.30;99.90;;;;;;4939861;28;20054;-70
2023/10/16 09:24:35;;;;;;;9.10;1.23;;;12.30;99.90;;;;;;4954877;28;20407;-69
2023/10/16 09:27:13;;;;;;;8.95;1.30;;;12.30;99.90;;;;;;4960858;28;20039;-70
2023/10/16 09:29:53;;;;;;;7.38;1.20;;;12.30;99.90;;;;;;4936442;29;20043;-70
2023/10/16 09:32:26;;;;;;;6.70;1.27;;;12.30;99.90;;;;;;4954478;28;20095;-70
2023/10/16 09:34:58;;;;;;;8.38;1.38;;;12.20;99.90;;;;;;4943296;28;20042;-69
2023/10/16 09:37:34;;;;;;;5.72;1.10;;;12.10;99.90;;;;;;4946413;28;20050;-70
2023/10/16 09:40:35;;;;;;;8.95;1.17;;;12.10;99.90;;;;;;4961830;28;20051;-70
2023/10/16 09:43:05;;;;;;;8.23;1.02;;;12.00;99.90;;;;;;4956865;28;20130;-70
2023/10/16 09:45:33;;;;;;;7.10;1.27;;;12.00;99.90;;;;;;4942682;28;20137;-69
2023/10/16 09:48:08;;;;;;;5.57;1.33;;;12.10;99.90;;;;;;4959407;28;20047;-70
2023/10/16 09:50:36;;;;;;;4.10;0.93;;;12.10;99.90;;;;;;4956965;28;20513;-70
2023/10/16 09:53:02;;;;;;;5.50;1.35;;;12.20;99.90;;;;;;4959093;28;20039;-69
2023/10/16 09:55:44;;;;;;;5.32;0.80;;;12.40;99.90;;;;;;4942645;28;20102;-69
2023/10/16 09:58:11;;;;;;;5.80;0.93;;;12.50;99.90;;;;;;4940370;29;20079;-70
2023/10/16 10:00:46;;;;;;;5.65;1.40;;;12.60;99.90;;;;;;4957733;28;20057;-70
2023/10/16 10:03:13;;;;;;;8.85;1.20;;;12.90;99.90;;;;;;4956526;28;20043;-69
2023/10/16 10:05:55;;;;;;;5.47;1.52;;;12.90;99.90;;;;;;4940303;28;20051;-70
2023/10/16 10:08:52;;;;;;;8.43;1.65;;;13.00;99.90;;;;;;4962092;28;20066;-71
2023/10/16 10:11:38;;;;;;;9.32;1.23;;;13.20;99.90;;;;;;4952845;28;20110;-71
2023/10/16 10:16:56;;;;;;;5.20;1.05;;;13.60;99.90;;;;;;4956611;28;20923;-71
2023/10/16 10:19:36;;;;;;;6.13;1.00;;;13.70;99.90;;;;;;4955065;28;20055;-71
2023/10/16 10:22:18;;;;;;;6.22;0.90;;;13.50;99.90;;;;;;4954325;28;20070;-71
2023/10/16 10:24:51;;;;;;;6.28;0.93;;;13.50;99.90;;;;;;4954768;28;20058;-72
2023/10/16 10:27:17;;;;;;;7.75;0.77;;;13.50;99.90;;;;;;4936714;29;20066;-70
2023/10/16 10:29:48;;;;;;;6.72;0.95;;;13.50;99.90;;;;;;4954825;28;20047;-69
2023/10/16 10:32:15;;;;;;;5.80;1.10;;;13.50;99.90;;;;;;4962545;28;20394;-70
2023/10/16 10:34:43;;;;;;;8.30;1.27;;;13.40;99.90;;;;;;4943676;29;20059;-70
2023/10/16 10:37:48;;;;;;;2.08;0.50;;;13.40;99.90;;;;;;4964275;28;20110;-70
2023/10/16 10:40:24;;;;;;;5.25;0.93;;;13.20;99.90;;;;;;4959129;28;20074;-70
2023/10/16 10:43:03;;;;;;;5.95;0.80;;;13.30;99.90;;;;;;4956587;28;20082;-69
2023/10/16 10:45:45;;;;;;;4.65;0.77;;;13.30;99.90;;;;;;4957589;28;20047;-69
2023/10/16 10:48:10;;;;;;;4.18;0.70;;;13.30;99.90;;;;;;4960163;28;20399;-69
2023/10/16 10:50:40;;;;;;;3.78;0.95;;;13.30;99.90;;;;;;4960521;28;20046;-70
2023/10/16 10:53:15;;;;;;;5.82;0.70;;;13.30;99.90;;;;;;4958710;28;20039;-70
2023/10/16 10:55:57;;;;;;;7.50;0.80;;;13.30;99.90;;;;;;4956422;28;20053;-71
2023/10/16 10:58:33;;;;;;;6.43;1.00;;;13.30;99.90;;;;;;4957881;28;20043;-71
2023/10/16 11:01:18;;;;;;;5.40;1.05;;;13.40;99.90;;;;;;4932601;28;20483;-70
2023/10/16 11:03:45;;;;;;;3.72;0.60;;;13.50;99.90;;;;;;4956549;28;20114;-71
2023/10/16 11:06:18;;;;;;;8.77;0.93;;;13.60;99.90;;;;;;4956459;28;20093;-71
2023/10/16 11:08:49;;;;;;;5.95;1.02;;;13.70;99.90;;;;;;4939567;28;20054;-71
2023/10/16 11:11:16;;;;;;;4.40;0.93;;;13.80;99.90;;;;;;4954465;28;20063;-74
2023/10/16 11:13:49;;;;;;;4.95;0.80;;;14.00;99.90;;;;;;4969245;28;20058;-71
2023/10/16 11:16:15;;;;;;;6.28;1.42;;;14.00;99.90;;;;;;4961059;28;20039;-70
2023/10/16 11:19:04;;;;;;;8.88;0.85;;;14.20;99.90;;;;;;4964007;28;20051;-70
2023/10/16 11:21:30;;;;;;;6.45;1.17;;;14.20;99.90;;;;;;4946700;28;20494;-70
2023/10/16 11:24:00;;;;;;;8.13;0.90;;;14.30;99.90;;;;;;4961006;28;20047;-72
2023/10/16 11:26:29;;;;;;;9.45;1.20;;;14.30;99.90;;;;;;4960892;28;20055;-70
2023/10/16 11:28:56;;;;;;;3.75;0.88;;;14.40;99.90;;;;;;4944971;28;20083;-71
2023/10/16 11:31:21;;;;;;;6.38;1.10;;;14.50;99.90;;;;;;4963687;28;20074;-71
2023/10/16 11:34:00;;;;;;;8.43;1.00;;;14.40;99.90;;;;;;4963568;28;20502;-70
2023/10/16 11:36:28;;;;;;;9.05;1.15;;;14.30;99.90;;;;;;4943121;29;20090;-70
2023/10/16 11:38:58;;;;;;;7.82;1.13;;;14.40;99.90;;;;;;4943496;28;20056;-70
2023/10/16 11:41:26;;;;;;;7.00;1.00;;;14.20;99.90;;;;;;4946307;28;20092;-72
2023/10/16 11:43:53;;;;;;;5.75;0.80;;;14.20;99.90;;;;;;4946150;28;20042;-70
2023/10/16 11:46:28;;;;;;;7.25;1.05;;;14.20;99.90;;;;;;4943256;28;20495;-71
2023/10/16 11:51:50;;;;;;;5.72;1.08;;;14.10;99.90;;;;;;4954687;28;20052;-73
2023/10/16 11:54:20;;;;;;;4.47;1.15;;;14.10;99.90;;;;;;4961761;28;20047;-72
2023/10/16 11:56:54;;;;;;;4.22;0.80;;;14.00;99.90;;;;;;4964009;28;20038;-70
2023/10/16 11:59:24;;;;;;;5.68;0.82;;;14.00;99.90;;;;;;4962147;28;20046;-69
2023/10/16 12:01:51;;;;;;;10.25;0.80;;;14.00;99.90;;;;;;4942866;29;20039;-70
2023/10/16 12:04:22;;;;;;;7.43;0.80;;;13.90;99.90;;;;;;4960343;28;20050;-69
2023/10/16 12:06:48;;;;;;;5.63;1.02;;;14.00;99.90;;;;;;4962702;28;20126;-69
2023/10/16 12:09:21;;;;;;;7.10;1.15;;;13.90;99.90;;;;;;4962897;28;20047;-70
2023/10/16 12:11:49;;;;;;;5.35;0.85;;;13.90;99.90;;;;;;4939405;28;20047;-71
2023/10/16 12:14:18;;;;;;;8.05;1.55;;;13.90;99.90;;;;;;4963129;28;20537;-69
2023/10/16 12:16:46;;;;;;;5.97;0.88;;;13.90;99.90;;;;;;4960924;28;20047;-69
2023/10/16 12:19:14;;;;;;;6.10;0.88;;;13.90;99.90;;;;;;4960066;28;20133;-70
2023/10/16 12:21:40;;;;;;;7.32;0.90;;;13.90;99.90;;;;;;4960291;28;20047;-71
2023/10/16 12:24:06;;;;;;;9.18;1.23;;;13.90;99.90;;;;;;4962977;28;20518;-69
2023/10/16 12:26:34;;;;;;;5.45;0.80;;;13.90;99.90;;;;;;4945774;28;20055;-70
2023/10/16 12:29:00;;;;;;;5.53;0.73;;;13.90;99.90;;;;;;4943135;28;20047;-70
2023/10/16 12:31:26;;;;;;;5.30;0.80;;;14.00;99.90;;;;;;4960073;28;20494;-70
2023/10/16 12:33:52;;;;;;;6.78;1.00;;;13.90;99.90;;;;;;4960907;28;20054;-69
2023/10/16 12:36:18;;;;;;;5.30;1.10;;;13.80;99.90;;;;;;4945492;28;20074;-69
2023/10/16 12:38:44;;;;;;;3.83;0.73;;;13.80;99.90;;;;;;4962560;28;20125;-70
2023/10/16 12:41:10;;;;;;;7.57;1.30;;;13.70;99.90;;;;;;4960369;28;20517;-70
2023/10/16 12:43:36;;;;;;;5.35;0.95;;;13.70;99.90;;;;;;4942297;29;20130;-70
2023/10/16 12:46:03;;;;;;;10.30;1.15;;;13.60;99.90;;;;;;4960364;28;20055;-70
2023/10/16 12:48:29;;;;;;;7.63;1.00;;;13.60;99.90;;;;;;4962770;28;20455;-71
2023/10/16 12:51:01;;;;;;;5.57;1.00;;;13.60;99.90;;;;;;4929282;28;20114;-70
2023/10/16 12:53:28;;;;;;;7.75;0.90;;;13.50;99.90;;;;;;4959816;28;20070;-69
2023/10/16 12:55:58;;;;;;;6.03;1.00;;;13.50;99.90;;;;;;4959598;28;20055;-69
2023/10/16 12:58:26;;;;;;;7.88;1.27;;;13.50;99.90;;;;;;4961389;28;20352;-70
2023/10/16 13:00:51;;;;;;;7.45;1.27;;;13.50;99.90;;;;;;4963179;28;20156;-70
2023/10/16 13:03:22;;;;;;;10.85;1.42;;;13.60;99.90;;;;;;4962867;28;20101;-69
2023/10/16 13:05:49;;;;;;;6.72;0.95;;;13.70;99.90;;;;;;4942725;29;20059;-71
2023/10/16 13:08:17;;;;;;;9.75;1.02;;;13.80;99.90;;;;;;4959475;28;20066;-70
2023/10/16 13:10:44;;;;;;;5.78;1.05;;;13.80;99.90;;;;;;4962529;28;20125;-70
2023/10/16 13:13:10;;;;;;;5.30;1.23;;;13.80;99.90;;;;;;4966707;28;20042;-74
2023/10/16 13:15:35;;;;;;;7.82;0.90;;;13.80;99.90;;;;;;4947869;28;20050;-71
2023/10/16 13:18:01;;;;;;;7.13;1.08;;;13.90;99.90;;;;;;4945974;29;20439;-71
2023/10/16 13:20:27;;;;;;;10.48;1.00;;;13.90;99.90;;;;;;4945936;29;20053;-70
2023/10/16 13:22:54;;;;;;;4.95;1.00;;;14.00;99.90;;;;;;4965424;28;20487;-69
2023/10/16 13:25:35;;;;;;;7.47;1.20;;;14.00;99.90;;;;;;4966038;28;20565;-73
2023/10/16 13:28:03;;;;;;;6.65;0.98;;;14.10;99.90;;;;;;4963307;28;20039;-70
2023/10/16 13:30:31;;;;;;;2.25;0.70;;;14.20;99.90;;;;;;4963035;28;20130;-69
2023/10/16 13:33:00;;;;;;;8.57;0.85;;;14.40;99.90;;;;;;4964575;28;20498;-70
2023/10/16 13:35:26;;;;;;;7.40;1.02;;;14.30;99.90;;;;;;4966054;28;20125;-70
2023/10/16 13:37:52;;;;;;;5.40;0.95;;;14.30;99.90;;;;;;4965763;28;20557;-69
2023/10/16 13:40:24;;;;;;;4.80;0.90;;;14.30;99.90;;;;;;4962775;28;20126;-70
2023/10/16 13:42:55;;;;;;;4.45;1.00;;;14.40;99.90;;;;;;4962934;28;20043;-69
2023/10/16 13:45:22;;;;;;;4.43;0.80;;;14.40;99.90;;;;;;4954786;28;20055;-69
2023/10/16 13:47:49;;;;;;;6.97;1.10;;;14.50;99.90;;;;;;4962638;28;20058;-70
2023/10/16 13:50:24;;;;;;;10.73;1.20;;;14.50;99.90;;;;;;4964310;28;20394;-70
2023/10/16 13:52:52;;;;;;;4.25;0.75;;;14.50;99.90;;;;;;4965547;28;20054;-69
2023/10/16 13:55:21;;;;;;;4.47;0.88;;;14.40;99.90;;;;;;4964006;28;20074;-70
2023/10/16 13:57:48;;;;;;;4.55;1.00;;;14.50;99.90;;;;;;4962561;28;20094;-69
2023/10/16 14:03:26;;;;;;;4.25;0.70;;;14.30;99.90;;;;;;4965815;28;20043;-70
2023/10/16 14:05:50;;;;;;;6.75;1.45;;;14.30;99.90;;;;;;4955433;28;20043;-70
2023/10/16 14:08:18;;;;;;;7.38;1.23;;;14.30;99.90;;;;;;4962416;28;20051;-71
2023/10/16 14:10:49;;;;;;;6.47;1.52;;;14.30;99.90;;;;;;4964758;28;20505;-69
2023/10/16 14:13:19;;;;;;;4.80;1.25;;;14.20;99.90;;;;;;4965574;28;20062;-69
2023/10/16 14:15:47;;;;;;;6.80;0.80;;;14.20;99.90;;;;;;4945650;28;20053;-69
2023/10/16 14:18:20;;;;;;;7.00;1.33;;;14.10;99.90;;;;;;4962606;28;20054;-74
2023/10/16 14:20:47;;;;;;;12.32;1.20;;;14.10;99.90;;;;;;4963936;28;20051;-69
2023/10/16 14:23:14;;;;;;;5.88;0.82;;;14.00;99.90;;;;;;4965083;28;20057;-69
2023/10/16 14:25:57;;;;;;;6.15;1.45;;;13.90;99.90;;;;;;4964139;28;20047;-69
2023/10/16 14:31:09;;;;;;;8.00;0.90;;;13.80;99.90;;;;;;4936756;29;20059;-70
2023/10/16 14:33:36;;;;;;;7.68;0.75;;;13.80;99.90;;;;;;4961962;28;20114;-70
2023/10/16 14:36:15;;;;;;;7.25;0.80;;;13.80;99.90;;;;;;4963496;28;20101;-69
2023/10/16 14:38:43;;;;;;;4.25;0.77;;;13.80;99.90;;;;;;4965534;28;20043;-71
2023/10/16 14:41:13;;;;;;;3.28;0.60;;;13.70;99.90;;;;;;4960730;28;20039;-71
2023/10/16 14:43:39;;;;;;;5.68;0.70;;;13.70;99.90;;;;;;4958293;28;20047;-69
2023/10/16 14:46:12;;;;;;;7.20;1.00;;;13.60;99.90;;;;;;4944662;28;20415;-68
2023/10/16 14:48:39;;;;;;;5.15;0.90;;;13.60;99.90;;;;;;4966598;28;20477;-69
2023/10/16 14:51:04;;;;;;;5.40;0.95;;;13.50;99.90;;;;;;4964362;28;20047;-69
2023/10/16 14:53:31;;;;;;;4.47;0.77;;;13.50;99.90;;;;;;4962294;28;20042;-70
2023/10/16 14:55:56;;;;;;;5.43;0.80;;;13.50;99.90;;;;;;4969022;28;20051;-69